Time;durP1;ratioP1;P1;durP2;ratioP2;P2;SDS_P1;SDS_P2;PMS_P1;PMS_P2;Temp;Humidity;BMP_temperature;BMP_pressure;BME280_temperature;BME280_humidity;BME280_pressure;Samples;Min_cycle;Max_cycle;Signal;HPM_P1;HPM_P2
2021/05/30 00:02:05;;;;;;;1999.90;999.90;;;;;;;13.28;55.00;102182.03;15786508;28;20104;-64
2021/05/30 00:09:38;;;;;;;1999.90;999.90;;;;;;;13.11;56.28;102181.00;15803491;28;20508;-63
2021/05/30 00:17:10;;;;;;;1999.90;999.90;;;;;;;12.89;57.16;102177.00;15802199;28;20036;-63
2021/05/30 00:24:42;;;;;;;1999.90;999.90;;;;;;;12.80;58.32;102183.66;15800909;28;20055;-64
2021/05/30 00:32:14;;;;;;;1999.90;999.90;;;;;;;12.62;58.75;102180.66;15802574;28;20063;-64
2021/05/30 00:39:47;;;;;;;1999.90;999.90;;;;;;;12.51;60.13;102179.22;15802604;28;20055;-64
2021/05/30 00:47:18;;;;;;;1999.90;999.90;;;;;;;11.83;61.26;102189.16;15802044;28;20041;-63
2021/05/30 00:54:51;;;;;;;1999.90;999.90;;;;;;;11.69;63.53;102190.22;15817455;22;20083;-64
2021/05/30 01:02:22;;;;;;;1999.90;999.90;;;;;;;11.91;63.52;102193.22;15802311;28;20155;-64
2021/05/30 01:09:54;;;;;;;1999.90;999.90;;;;;;;11.79;65.29;102176.91;15842198;28;20502;-64
2021/05/30 01:17:26;;;;;;;1999.90;999.90;;;;;;;11.85;66.32;102177.66;15873550;28;20048;-64
2021/05/30 01:24:59;;;;;;;1999.90;999.90;;;;;;;11.80;67.27;102170.19;15872835;28;20048;-65
2021/05/30 01:32:31;;;;;;;1999.90;999.90;;;;;;;11.74;67.75;102171.38;15870810;28;20078;-65
2021/05/30 01:40:06;;;;;;;1999.90;999.90;;;;;;;11.79;68.50;102173.25;15870617;28;20039;-65
2021/05/30 01:47:38;;;;;;;1999.90;999.90;;;;;;;11.75;68.30;102177.78;15869465;28;20043;-65
2021/05/30 01:55:21;;;;;;;1999.90;999.90;;;;;;;11.65;68.76;102183.56;15870772;28;20126;-65
2021/05/30 02:02:54;;;;;;;1999.90;999.90;;;;;;;11.53;68.67;102190.44;15871360;28;20043;-65
2021/05/30 02:10:27;;;;;;;1999.90;999.90;;;;;;;11.04;70.58;102178.88;15869636;28;20043;-65
2021/05/30 02:17:59;;;;;;;1999.90;999.90;;;;;;;10.89;70.62;102186.34;15868598;27;20044;-65
2021/05/30 02:25:32;;;;;;;1999.90;999.90;;;;;;;10.76;70.38;102187.09;15869155;28;20055;-65
2021/05/30 02:33:04;;;;;;;1999.90;999.90;;;;;;;10.70;70.23;102180.72;15865434;28;20480;-65
2021/05/30 02:40:36;;;;;;;1999.90;999.90;;;;;;;10.75;70.04;102190.19;15866040;28;20476;-64
2021/05/30 02:48:09;;;;;;;1999.90;999.90;;;;;;;10.56;70.34;102199.34;15865697;28;20301;-64
2021/05/30 02:55:41;;;;;;;1999.90;999.90;;;;;;;10.45;70.75;102195.00;15865902;28;20054;-65
2021/05/30 03:03:13;;;;;;;1999.90;999.90;;;;;;;10.46;70.37;102198.63;15866080;28;20381;-64
2021/05/30 03:10:45;;;;;;;1999.90;999.90;;;;;;;10.27;70.57;102192.97;15863826;28;20105;-65
2021/05/30 03:18:17;;;;;;;1999.90;999.90;;;;;;;10.12;71.58;102189.19;15865443;28;20426;-65
2021/05/30 03:25:50;;;;;;;1999.90;999.90;;;;;;;10.24;71.37;102202.78;15866841;28;20488;-65
2021/05/30 03:33:22;;;;;;;1999.90;999.90;;;;;;;10.39;70.73;102208.16;15865081;28;20431;-64
2021/05/30 03:41:01;;;;;;;1999.90;999.90;;;;;;;10.35;71.50;102207.13;15865534;28;20060;-65
2021/05/30 03:48:33;;;;;;;1999.90;999.90;;;;;;;10.62;70.54;102192.56;15864060;28;20055;-65
2021/05/30 03:56:06;;;;;;;1999.90;999.90;;;;;;;10.65;70.22;102205.94;15861819;28;20040;-65
2021/05/30 04:03:38;;;;;;;1999.90;999.90;;;;;;;10.71;70.45;102201.09;15862907;28;20067;-65
2021/05/30 04:11:10;;;;;;;1999.90;999.90;;;;;;;10.92;69.40;102202.50;15863159;28;20047;-65
2021/05/30 04:18:42;;;;;;;1999.90;999.90;;;;;;;11.03;68.32;102208.78;15843606;28;20058;-65
2021/05/30 04:26:18;;;;;;;1999.90;999.90;;;;;;;11.37;67.81;102217.00;15862012;28;20040;-65
2021/05/30 04:33:49;;;;;;;1999.90;999.90;;;;;;;11.43;64.52;102224.16;15860944;28;20032;-65
2021/05/30 04:41:33;;;;;;;1999.90;999.90;;;;;;;11.94;63.19;102219.75;15860078;28;20088;-65
2021/05/30 04:49:05;;;;;;;1999.90;999.90;;;;;;;12.36;60.59;102227.91;15860288;28;20126;-65
2021/05/30 04:56:37;;;;;;;1999.90;999.90;;;;;;;12.76;59.72;102225.47;15841857;28;20043;-65
2021/05/30 05:04:09;;;;;;;1999.90;999.90;;;;;;;13.19;56.48;102231.56;15841785;28;20143;-65
2021/05/30 05:11:41;;;;;;;1999.90;999.90;;;;;;;13.81;55.08;102231.81;15860155;28;20062;-65
2021/05/30 05:19:13;;;;;;;1999.90;999.90;;;;;;;14.52;53.56;102233.94;15859426;28;20122;-66
2021/05/30 05:26:45;;;;;;;1999.90;999.90;;;;;;;15.58;51.09;102229.88;15857957;28;20046;-66
2021/05/30 05:34:19;;;;;;;1999.90;999.90;;;;;;;15.86;49.01;102221.97;15859353;28;20188;-66
2021/05/30 05:41:53;;;;;;;1999.90;999.90;;;;;;;16.18;47.45;102226.22;15859608;28;20044;-66
2021/05/30 05:49:24;;;;;;;;;;;;;;;16.82;45.33;102222.53;15863619;28;20085;-67
2021/05/30 05:56:57;;;;;;;1999.90;999.90;;;;;;;17.18;43.05;102225.63;15869615;28;19927;-67
2021/05/30 06:04:28;;;;;;;1999.90;999.90;;;;;;;17.55;42.69;102235.16;15868528;28;20062;-65
2021/05/30 06:12:00;;;;;;;1999.90;999.90;;;;;;;18.66;42.05;102236.44;15867666;28;20111;-65
2021/05/30 06:19:35;;;;;;;1999.90;999.90;;;;;;;18.12;41.67;102233.69;15867521;28;20122;-66
2021/05/30 06:27:08;;;;;;;1999.90;999.90;;;;;;;18.63;37.95;102237.09;15868734;27;20249;-65
2021/05/30 06:34:39;;;;;;;1999.90;999.90;;;;;;;18.57;39.66;102238.53;15867709;28;20044;-65
2021/05/30 06:42:12;;;;;;;1999.90;999.90;;;;;;;19.44;37.01;102244.66;15866482;28;20145;-66
2021/05/30 06:49:44;;;;;;;1999.90;999.90;;;;;;;19.57;40.59;102242.63;15866954;28;20059;-65
2021/05/30 06:57:16;;;;;;;1999.90;999.90;;;;;;;20.97;38.00;102254.69;15831185;22;20111;-63
2021/05/30 07:04:48;;;;;;;1999.90;999.90;;;;;;;19.70;35.60;102252.78;15809990;28;20052;-62
2021/05/30 07:12:20;;;;;;;1999.90;999.90;;;;;;;20.60;34.04;102251.28;15805128;28;20135;-63
2021/05/30 07:19:53;;;;;;;1999.90;999.90;;;;;;;20.91;36.09;102263.81;15788311;28;20036;-61
2021/05/30 07:27:26;;;;;;;;;;;;;;;21.39;35.33;102265.44;15805537;28;20059;-63
2021/05/30 07:34:57;;;;;;;1999.90;999.90;;;;;;;20.98;33.24;102253.47;15787912;28;19924;-64
2021/05/30 07:42:30;;;;;;;1999.90;999.90;;;;;;;21.29;34.28;102266.00;15787445;28;20044;-62
2021/05/30 07:50:01;;;;;;;1999.90;999.90;;;;;;;22.19;32.57;102259.06;15804643;28;20044;-62
2021/05/30 07:57:34;;;;;;;1999.90;999.90;;;;;;;22.65;31.68;102261.16;15785713;28;20492;-62
2021/05/30 08:05:08;;;;;;;1999.90;999.90;;;;;;;23.08;33.68;102261.94;15768961;28;20051;-64
2021/05/30 08:12:41;;;;;;;1999.90;999.90;;;;;;;22.63;33.13;102272.09;15785218;28;20492;-62
2021/05/30 08:20:14;;;;;;;;;;;;;;;22.19;32.77;102266.78;15803592;28;20119;-63
2021/05/30 08:27:48;;;;;;;1999.90;999.90;;;;;;;23.25;31.28;102264.25;15802967;28;19920;-63
2021/05/30 08:35:19;;;;;;;1999.90;999.90;;;;;;;23.52;30.27;102265.84;15784506;28;20031;-63
2021/05/30 08:42:52;;;;;;;1999.90;999.90;;;;;;;23.09;34.31;102257.88;15783891;28;20518;-63
2021/05/30 08:50:23;;;;;;;1999.90;999.90;;;;;;;24.47;31.15;102256.91;15802265;28;20664;-63
2021/05/30 08:57:57;;;;;;;1999.90;999.90;;;;;;;23.33;30.41;102257.44;15802009;28;20044;-64
2021/05/30 09:05:35;;;;;;;1999.90;999.90;;;;;;;22.56;30.37;102261.41;15767124;28;20134;-63
2021/05/30 09:13:10;;;;;;;1999.90;999.90;;;;;;;22.88;30.84;102264.84;15766646;28;20052;-63
2021/05/30 09:20:56;;;;;;;1999.90;999.90;;;;;;;25.04;33.24;102257.47;15783678;28;20093;-62
2021/05/30 09:28:28;;;;;;;1999.90;999.90;;;;;;;23.99;28.95;102244.53;15795830;28;20160;-61
2021/05/30 09:36:03;;;;;;;1999.90;999.90;;;;;;;24.17;29.90;102244.72;15812860;28;20071;-63
2021/05/30 09:43:37;;;;;;;1999.90;999.90;;;;;;;24.55;30.67;102252.09;15794290;28;20040;-62
2021/05/30 09:51:23;;;;;;;1999.90;999.90;;;;;;;24.25;28.60;102251.34;15812878;28;20055;-64
2021/05/30 09:58:57;;;;;;;1999.90;999.90;;;;;;;24.52;30.42;102257.78;15777325;28;20044;-64
2021/05/30 10:06:29;;;;;;;1999.90;999.90;;;;;;;25.22;28.25;102249.03;15811506;28;20048;-64
2021/05/30 10:14:02;;;;;;;1999.90;999.90;;;;;;;26.36;28.30;102243.03;15793407;28;20063;-64
2021/05/30 10:21:34;;;;;;;1999.90;999.90;;;;;;;25.60;29.86;102243.94;15811042;28;20408;-64
2021/05/30 10:29:11;;;;;;;1999.90;999.90;;;;;;;25.49;28.14;102243.06;15810264;28;20497;-63
2021/05/30 10:36:45;;;;;;;1999.90;999.90;;;;;;;25.77;28.43;102237.53;15790586;28;20052;-61
2021/05/30 10:44:48;;;;;;;1999.90;999.90;;;;;;;25.48;28.96;102232.88;15791025;28;20044;-62
2021/05/30 10:52:33;;;;;;;1999.90;999.90;;;;;;;25.21;30.33;102226.56;15790301;28;20051;-62
2021/05/30 11:00:34;;;;;;;1999.90;999.90;;;;;;;25.87;29.52;102225.34;15808606;28;20094;-62
2021/05/30 11:08:06;;;;;;;1999.90;999.90;;;;;;;26.61;26.19;102215.31;15789626;28;20497;-65
2021/05/30 11:15:42;;;;;;;1999.90;999.90;;;;;;;25.89;26.71;102222.88;15808217;28;20040;-62
2021/05/30 11:23:17;;;;;;;1999.90;999.90;;;;;;;26.62;26.85;102208.34;15807289;28;20131;-62
2021/05/30 11:30:56;;;;;;;1999.90;999.90;;;;;;;26.83;26.91;102198.13;15787973;28;20081;-63
2021/05/30 11:38:36;;;;;;;1999.90;999.90;;;;;;;25.47;31.82;102214.91;15787041;28;20044;-63
2021/05/30 11:46:13;;;;;;;1999.90;999.90;;;;;;;27.30;27.29;102205.44;15786434;28;20048;-64
2021/05/30 11:53:45;;;;;;;1999.90;999.90;;;;;;;27.41;28.34;102214.00;15804430;28;20040;-62
2021/05/30 12:01:19;;;;;;;1999.90;999.90;;;;;;;29.32;25.28;102203.34;15804621;28;20075;-64
2021/05/30 12:08:54;;;;;;;1999.90;999.90;;;;;;;28.03;26.53;102201.91;15786138;28;20500;-63
2021/05/30 12:16:26;;;;;;;1999.90;999.90;;;;;;;25.99;30.36;102191.88;15785299;28;20048;-63
2021/05/30 12:23:59;;;;;;;;;;;;;;;25.97;28.96;102177.16;15785699;28;20044;-62
2021/05/30 12:31:31;;;;;;;;;;;;;;;29.75;25.10;102191.34;15785148;28;19920;-62
2021/05/30 12:39:05;;;;;;;;;;;;;;;28.07;26.02;102191.22;15802807;28;19927;-62
2021/05/30 12:46:39;;;;;;;1999.90;999.90;;;;;;;29.57;23.18;102176.38;15800967;28;20015;-62
2021/05/30 12:54:18;;;;;;;1999.90;999.90;;;;;;;35.64;17.96;102178.09;15800642;28;20040;-63
2021/05/30 13:01:52;;;;;;;1999.90;999.90;;;;;;;35.53;18.92;102177.69;15794647;28;20052;-63
2021/05/30 13:09:25;;;;;;;1999.90;999.90;;;;;;;26.85;27.29;102172.75;15795070;28;20658;-60
2021/05/30 13:17:22;;;;;;;1999.90;999.90;;;;;;;24.18;30.42;102158.81;15795887;28;20094;-59
2021/05/30 13:24:54;;;;;;;1999.90;999.90;;;;;;;23.03;30.71;102147.19;15795107;28;20318;-60
2021/05/30 13:32:27;;;;;;;1999.90;999.90;;;;;;;24.41;30.15;102140.69;15813283;28;20051;-60
2021/05/30 13:40:00;;;;;;;1999.90;999.90;;;;;;;25.38;29.83;102123.00;15813252;28;20201;-60
2021/05/30 13:47:32;;;;;;;1999.90;999.90;;;;;;;23.29;30.21;102129.22;15812322;28;20504;-60
2021/05/30 13:55:06;;;;;;;1999.90;999.90;;;;;;;23.21;30.30;102123.81;15777404;28;20040;-61
2021/05/30 14:02:38;;;;;;;1999.90;999.90;;;;;;;23.38;32.12;102122.41;15788508;28;20097;-60
2021/05/30 14:10:11;;;;;;;1999.90;999.90;;;;;;;23.74;33.00;102126.53;15786752;28;20058;-61
2021/05/30 14:17:43;;;;;;;1999.90;999.90;;;;;;;24.08;29.71;102108.19;15807928;28;20481;-62
2021/05/30 14:25:15;;;;;;;1999.90;999.90;;;;;;;23.68;29.10;102100.44;15795098;28;20049;-62
2021/05/30 14:32:48;;;;;;;1999.90;999.90;;;;;;;23.83;31.68;102096.50;15778371;28;20075;-62
2021/05/30 14:40:20;;;;;;;1999.90;999.90;;;;;;;23.38;31.93;102086.22;15788157;28;20091;-61
2021/05/30 14:47:52;;;;;;;1999.90;999.90;;;;;;;23.02;31.78;102080.03;15785777;28;20032;-61
2021/05/30 14:55:24;;;;;;;1999.90;999.90;;;;;;;22.26;30.93;102079.28;15805012;28;20040;-62
2021/05/30 15:02:56;;;;;;;1999.90;999.90;;;;;;;22.57;32.17;102080.16;15805772;28;20048;-60
2021/05/30 15:10:33;;;;;;;1999.90;999.90;;;;;;;22.96;32.99;102070.22;15782922;28;20488;-61
2021/05/30 15:18:06;;;;;;;1999.90;999.90;;;;;;;22.88;31.36;102061.97;15775458;28;20048;-60
2021/05/30 15:25:37;;;;;;;1999.90;999.90;;;;;;;22.35;31.25;102065.63;15791465;28;20115;-61
2021/05/30 15:33:10;;;;;;;1999.90;999.90;;;;;;;22.20;32.45;102058.06;15795825;28;20054;-61
2021/05/30 15:40:42;;;;;;;1999.90;999.90;;;;;;;22.61;32.40;102049.75;15769422;28;20056;-61
2021/05/30 15:48:15;;;;;;;1999.90;999.90;;;;;;;21.84;33.16;102031.81;15798392;28;21744;-64
2021/05/30 15:55:46;;;;;;;1999.90;999.90;;;;;;;21.81;35.75;102041.13;15781237;28;20044;-64
2021/05/30 16:03:19;;;;;;;1999.90;999.90;;;;;;;21.96;35.42;102030.00;15798380;28;20048;-63
2021/05/30 16:10:51;;;;;;;1999.90;999.90;;;;;;;21.53;30.22;102026.38;15777970;28;20044;-62
2021/05/30 16:18:23;;;;;;;1999.90;999.90;;;;;;;21.73;34.88;102027.97;15782769;28;20043;-61
2021/05/30 16:25:55;;;;;;;1999.90;999.90;;;;;;;21.62;33.01;102024.13;15802078;28;20042;-61
2021/05/30 16:33:28;;;;;;;1999.90;999.90;;;;;;;21.68;32.11;102016.94;15795777;28;20425;-62
2021/05/30 16:41:00;;;;;;;1999.90;999.90;;;;;;;21.66;33.29;102016.47;15795676;28;20044;-62
2021/05/30 16:48:33;;;;;;;1999.90;999.90;;;;;;;21.47;33.67;102011.69;15790556;28;20051;-60
2021/05/30 16:56:05;;;;;;;1999.90;999.90;;;;;;;21.50;34.73;102008.06;15770903;28;20036;-61
2021/05/30 17:03:37;;;;;;;1999.90;999.90;;;;;;;21.17;34.24;102007.81;15765368;28;20048;-60
2021/05/30 17:11:09;;;;;;;1999.90;999.90;;;;;;;20.95;34.59;102012.22;15770126;28;20097;-61
2021/05/30 17:18:45;;;;;;;1999.90;999.90;;;;;;;21.02;35.29;102004.66;15799326;28;20047;-61
2021/05/30 17:26:18;;;;;;;1999.90;999.90;;;;;;;20.64;35.23;101994.13;15780068;28;20473;-63
2021/05/30 17:33:50;;;;;;;1999.90;999.90;;;;;;;21.01;35.55;101990.84;15785271;28;20058;-62
2021/05/30 17:41:22;;;;;;;1999.90;999.90;;;;;;;20.58;35.24;101994.78;15779776;28;20040;-62
2021/05/30 17:48:54;;;;;;;1999.90;999.90;;;;;;;20.38;35.98;102000.38;15807947;28;20130;-61
2021/05/30 17:56:26;;;;;;;1999.90;999.90;;;;;;;20.17;34.83;102002.72;15810371;28;20130;-62
2021/05/30 18:03:58;;;;;;;1999.90;999.90;;;;;;;19.97;36.27;102006.66;15810844;28;20059;-60
2021/05/30 18:11:30;;;;;;;1999.90;999.90;;;;;;;19.75;35.48;101993.97;15810942;28;20390;-64
2021/05/30 18:19:03;;;;;;;1999.90;999.90;;;;;;;19.68;38.18;101994.59;15811566;28;20040;-61
2021/05/30 18:26:35;;;;;;;1999.90;999.90;;;;;;;19.26;36.02;101991.38;15792345;28;20461;-60
2021/05/30 18:34:08;;;;;;;1999.90;999.90;;;;;;;19.21;36.07;101997.34;15792754;28;20542;-61
2021/05/30 18:41:39;;;;;;;1999.90;999.90;;;;;;;18.95;37.16;101990.13;15767959;28;20056;-65
2021/05/30 18:49:12;;;;;;;1999.90;999.90;;;;;;;18.87;37.23;102004.44;15788870;28;20036;-61
2021/05/30 18:56:44;;;;;;;1999.90;999.90;;;;;;;18.44;37.46;102003.91;15857107;22;20327;-64
2021/05/30 19:04:18;;;;;;;1999.90;999.90;;;;;;;18.21;38.37;102005.56;15861544;28;20051;-64
2021/05/30 19:11:49;;;;;;;;;;;;;;;18.11;38.68;102009.69;15861490;28;20047;-64
2021/05/30 19:19:22;;;;;;;1999.90;999.90;;;;;;;17.76;40.70;102019.81;15861844;28;20275;-64
2021/05/30 19:26:53;;;;;;;1999.90;999.90;;;;;;;17.36;40.75;102013.91;15862343;28;20203;-64
2021/05/30 19:34:26;;;;;;;1999.90;999.90;;;;;;;17.26;42.21;102012.34;15860777;28;20062;-66
2021/05/30 19:41:58;;;;;;;1999.90;999.90;;;;;;;17.15;42.51;102025.25;15858829;28;20369;-62
2021/05/30 19:49:32;;;;;;;1999.90;999.90;;;;;;;16.87;42.88;102037.09;15859885;28;20044;-64
2021/05/30 19:57:04;;;;;;;1999.90;999.90;;;;;;;16.58;41.50;102037.13;15841814;28;20471;-64
2021/05/30 20:04:37;;;;;;;1999.90;999.90;;;;;;;16.36;42.89;102043.88;15859570;28;20472;-62
2021/05/30 20:12:10;;;;;;;1999.90;999.90;;;;;;;16.24;43.80;102049.41;15832352;28;20068;-63
2021/05/30 20:19:44;;;;;;;1999.90;999.90;;;;;;;16.28;46.11;102070.13;15845409;27;20163;-62
2021/05/30 20:27:23;;;;;;;1999.90;999.90;;;;;;;16.02;46.21;102061.78;15855357;28;20058;-61
2021/05/30 20:34:56;;;;;;;1999.90;999.90;;;;;;;15.94;46.77;102057.00;15860308;28;20047;-63
2021/05/30 20:42:27;;;;;;;1999.90;999.90;;;;;;;15.92;45.89;102068.59;15840645;28;20135;-62
2021/05/30 20:50:01;;;;;;;1999.90;999.90;;;;;;;15.60;46.10;102072.84;15857899;28;20032;-62
2021/05/30 20:57:32;;;;;;;1999.90;999.90;;;;;;;15.33;47.08;102073.22;15855797;28;20069;-62
2021/05/30 21:05:08;;;;;;;1999.90;999.90;;;;;;;15.03;48.08;102064.63;15860834;28;20036;-61
2021/05/30 21:12:39;;;;;;;1999.90;999.90;;;;;;;14.79;50.08;102070.72;15859499;28;20403;-63
2021/05/30 21:20:13;;;;;;;1999.90;999.90;;;;;;;14.44;51.86;102069.81;15864902;28;20318;-63
2021/05/30 21:27:45;;;;;;;1999.90;999.90;;;;;;;14.04;53.70;102069.81;15872446;28;20048;-62
2021/05/30 21:35:17;;;;;;;1999.90;999.90;;;;;;;13.82;54.53;102079.13;15872270;28;20131;-63
2021/05/30 21:42:49;;;;;;;1999.90;999.90;;;;;;;13.54;53.99;102080.44;15870659;28;20047;-63
2021/05/30 21:50:22;;;;;;;1999.90;999.90;;;;;;;13.30;54.22;102080.78;15870253;28;20120;-63
2021/05/30 21:57:55;;;;;;;1999.90;999.90;;;;;;;13.04;56.54;102090.94;15869088;28;20454;-63
2021/05/30 22:05:27;;;;;;;1999.90;999.90;;;;;;;12.96;55.29;102084.94;15867745;28;20297;-62
2021/05/30 22:12:59;;;;;;;1999.90;999.90;;;;;;;12.54;56.33;102077.78;15868380;28;20040;-63
2021/05/30 22:20:31;;;;;;;1999.90;999.90;;;;;;;12.47;58.07;102074.56;15866721;28;20505;-63
2021/05/30 22:28:03;;;;;;;1999.90;999.90;;;;;;;12.58;57.20;102089.19;15867867;28;20052;-62
2021/05/30 22:35:36;;;;;;;1999.90;999.90;;;;;;;12.50;55.95;102081.50;15866118;28;20071;-63
2021/05/30 22:43:08;;;;;;;1999.90;999.90;;;;;;;12.41;56.66;102084.25;15867096;28;20124;-61
2021/05/30 22:50:41;;;;;;;1999.90;999.90;;;;;;;12.37;56.33;102081.22;15866720;28;20049;-63
2021/05/30 22:58:13;;;;;;;1999.90;999.90;;;;;;;12.37;56.01;102077.59;15865878;28;20048;-63
2021/05/30 23:05:45;;;;;;;1999.90;999.90;;;;;;;12.22;55.73;102078.75;15862554;28;20047;-63
2021/05/30 23:13:18;;;;;;;1999.90;999.90;;;;;;;12.13;56.50;102067.44;15861985;28;20040;-63
2021/05/30 23:20:51;;;;;;;1999.90;999.90;;;;;;;11.93;57.25;102069.81;15861414;28;20126;-62
2021/05/30 23:28:23;;;;;;;1999.90;999.90;;;;;;;11.68;57.65;102069.16;15863885;28;20424;-62
2021/05/30 23:35:55;;;;;;;1999.90;999.90;;;;;;;11.47;59.89;102054.69;15863578;28;20048;-63
2021/05/30 23:43:26;;;;;;;1999.90;999.90;;;;;;;11.21;60.85;102068.28;15862634;28;20089;-63
2021/05/30 23:51:00;;;;;;;1999.90;999.90;;;;;;;11.09;62.08;102056.75;15861437;28;20044;-63
2021/05/30 23:58:31;;;;;;;1999.90;999.90;;;;;;;10.84;63.09;102055.19;15861136;28;20159;-62
